Time;durP1;ratioP1;P1;durP2;ratioP2;P2;SDS_P1;SDS_P2;PMS_P1;PMS_P2;Temp;Humidity;BMP_temperature;BMP_pressure;BME280_temperature;BME280_humidity;BME280_pressure;Samples;Min_cycle;Max_cycle;Signal;HPM_P1;HPM_P2
2023/03/28 00:02:15;;;;;;;3.83;1.95;;;;;;;17.32;54.28;100164.13;5112311;28;20111;-65
2023/03/28 00:04:40;;;;;;;4.63;2.50;;;;;;;17.33;54.46;100168.47;5111018;28;20027;-64
2023/03/28 00:07:06;;;;;;;6.10;2.35;;;;;;;17.32;54.71;100172.03;5112207;28;20044;-63
2023/03/28 00:09:32;;;;;;;6.18;2.47;;;;;;;17.32;54.27;100166.75;5111954;28;20024;-64
2023/03/28 00:11:57;;;;;;;4.65;2.35;;;;;;;17.32;54.34;100169.38;5112299;28;20020;-64
2023/03/28 00:14:23;;;;;;;4.53;2.10;;;;;;;17.30;54.29;100168.59;5112255;28;20080;-63
2023/03/28 00:16:49;;;;;;;4.93;2.35;;;;;;;17.29;54.33;100172.16;5112207;28;20024;-63
2023/03/28 00:19:17;;;;;;;5.35;2.25;;;;;;;17.29;54.62;100161.59;5112317;28;20378;-64
2023/03/28 00:21:48;;;;;;;5.38;2.50;;;;;;;17.27;54.57;100155.50;5112290;28;20436;-63
2023/03/28 00:24:16;;;;;;;6.50;2.47;;;;;;;17.28;54.46;100165.13;5111685;28;20504;-64
2023/03/28 00:26:43;;;;;;;5.05;2.55;;;;;;;17.27;54.22;100163.41;5111768;28;20049;-63
2023/03/28 00:29:15;;;;;;;5.32;2.28;;;;;;;17.29;54.33;100172.16;5112029;28;20054;-64
2023/03/28 00:31:41;;;;;;;5.07;2.50;;;;;;;17.26;54.28;100177.50;5110744;28;20026;-64
2023/03/28 00:34:07;;;;;;;7.18;2.85;;;;;;;17.24;54.40;100174.91;5112144;28;20028;-64
2023/03/28 00:36:33;;;;;;;6.70;2.72;;;;;;;17.24;54.27;100179.34;5112055;28;20040;-63
2023/03/28 00:39:04;;;;;;;5.00;2.83;;;;;;;17.21;54.61;100175.03;5111605;28;20069;-64
2023/03/28 00:41:30;;;;;;;5.47;2.65;;;;;;;17.22;54.72;100175.88;5111986;28;20024;-64
2023/03/28 00:43:56;;;;;;;6.88;2.40;;;;;;;17.21;54.43;100168.91;5111791;28;20030;-64
2023/03/28 00:46:29;;;;;;;6.13;2.60;;;;;;;17.21;54.69;100168.91;5111813;28;20155;-65
2023/03/28 00:49:02;;;;;;;4.43;2.50;;;;;;;17.18;54.21;100169.84;5111964;28;20134;-64
2023/03/28 00:51:32;;;;;;;5.05;2.60;;;;;;;17.17;54.25;100168.13;5114183;28;20027;-63
2023/03/28 00:54:00;;;;;;;5.03;2.63;;;;;;;17.12;54.42;100165.66;5115672;28;20481;-64
2023/03/28 00:56:30;;;;;;;4.45;2.65;;;;;;;17.14;54.45;100162.97;5115795;28;20035;-64
2023/03/28 00:58:57;;;;;;;4.50;2.65;;;;;;;17.14;54.58;100169.09;5115675;28;20066;-64
2023/03/28 01:01:22;;;;;;;4.85;2.28;;;;;;;17.11;54.27;100160.44;5115472;28;20111;-64
2023/03/28 01:04:04;;;;;;;4.57;2.30;;;;;;;17.07;54.60;100162.31;5115710;28;20106;-64
2023/03/28 01:06:39;;;;;;;5.60;2.70;;;;;;;17.05;54.52;100164.16;5115108;28;20023;-63
2023/03/28 01:09:07;;;;;;;4.47;2.40;;;;;;;17.06;54.44;100159.72;5115504;28;20051;-64
2023/03/28 01:11:38;;;;;;;5.47;2.72;;;;;;;17.07;54.62;100156.16;5115564;28;20011;-64
2023/03/28 01:14:06;;;;;;;4.93;2.80;;;;;;;17.03;54.55;100155.41;5115469;28;20031;-64
2023/03/28 01:16:31;;;;;;;4.10;2.40;;;;;;;17.04;54.10;100149.22;5115419;28;20023;-64
2023/03/28 01:19:01;;;;;;;5.55;2.90;;;;;;;16.99;54.29;100159.03;5115404;28;20072;-64
2023/03/28 01:21:41;;;;;;;6.32;2.90;;;;;;;16.97;54.40;100155.59;5115036;28;20051;-64
2023/03/28 01:24:36;;;;;;;4.63;2.70;;;;;;;16.96;54.48;100153.88;5115258;28;20584;-64
2023/03/28 01:27:22;;;;;;;6.53;2.47;;;;;;;16.92;54.51;100159.22;5109071;28;20039;-64
2023/03/28 01:30:21;;;;;;;5.22;2.70;;;;;;;16.91;54.58;100146.97;5115162;28;20096;-64
2023/03/28 01:33:14;;;;;;;5.90;2.95;;;;;;;16.90;54.38;100145.25;5114937;28;20050;-64
2023/03/28 01:35:58;;;;;;;4.47;2.53;;;;;;;16.88;54.52;100141.81;5114719;28;20024;-64
2023/03/28 01:38:32;;;;;;;5.53;3.13;;;;;;;16.87;54.36;100132.19;5115134;28;20098;-64
2023/03/28 01:41:06;;;;;;;5.90;2.78;;;;;;;16.82;54.41;100142.00;5113835;28;20465;-63
2023/03/28 01:43:32;;;;;;;5.10;2.60;;;;;;;16.80;54.41;100138.53;5114779;28;20024;-64
2023/03/28 01:46:06;;;;;;;5.43;2.55;;;;;;;16.80;54.39;100135.91;5113425;28;20143;-64
2023/03/28 01:48:32;;;;;;;5.28;2.78;;;;;;;16.82;54.50;100131.47;5114793;27;20092;-64
2023/03/28 01:51:10;;;;;;;4.85;2.58;;;;;;;16.81;54.32;100124.47;5114358;28;20481;-64
2023/03/28 01:53:44;;;;;;;4.72;2.53;;;;;;;16.84;54.53;100128.75;5114500;28;20061;-64
2023/03/28 01:56:29;;;;;;;5.35;2.50;;;;;;;16.81;54.20;100129.75;5115054;28;20063;-64
2023/03/28 01:59:03;;;;;;;4.38;2.17;;;;;;;16.81;54.39;100119.19;5115430;28;20035;-64
2023/03/28 02:01:52;;;;;;;4.95;2.25;;;;;;;16.81;54.35;100116.56;5115067;28;20051;-63
2023/03/28 02:04:19;;;;;;;4.57;2.53;;;;;;;16.78;54.36;100111.38;5114208;28;20024;-64
2023/03/28 02:06:48;;;;;;;5.28;2.88;;;;;;;16.78;54.37;100108.75;5114967;28;20051;-65
2023/03/28 02:09:17;;;;;;;5.70;2.88;;;;;;;16.75;54.61;100098.28;5114906;28;20020;-64
2023/03/28 02:11:44;;;;;;;5.68;2.53;;;;;;;16.76;54.22;100100.03;5114040;28;20058;-64
2023/03/28 02:14:16;;;;;;;5.15;2.40;;;;;;;16.76;54.49;100089.50;5114104;28;20091;-64
2023/03/28 02:16:44;;;;;;;4.28;2.17;;;;;;;16.76;54.23;100087.72;5114050;28;20023;-64
2023/03/28 02:19:12;;;;;;;5.45;2.47;;;;;;;16.75;54.33;100082.47;5113773;28;20112;-64
2023/03/28 02:22:06;;;;;;;4.70;2.40;;;;;;;16.72;54.14;100080.84;5113971;28;20030;-64
2023/03/28 02:24:32;;;;;;;5.03;2.47;;;;;;;16.71;54.02;100080.88;5114112;28;20447;-64
2023/03/28 02:26:57;;;;;;;5.20;2.45;;;;;;;16.67;54.35;100071.34;5113930;28;20035;-64
2023/03/28 02:29:23;;;;;;;6.90;2.65;;;;;;;16.67;54.35;100058.16;5113830;28;20028;-64
2023/03/28 02:31:48;;;;;;;4.93;2.55;;;;;;;16.62;54.55;100059.16;5113843;28;20687;-63
2023/03/28 02:34:14;;;;;;;4.63;2.42;;;;;;;16.62;54.15;100055.69;5113641;28;20489;-64
2023/03/28 02:36:51;;;;;;;5.53;2.80;;;;;;;16.62;54.23;100055.69;5113386;28;20054;-64
2023/03/28 02:39:42;;;;;;;4.22;2.17;;;;;;;16.63;54.39;100050.38;5113934;28;20028;-64
2023/03/28 02:42:32;;;;;;;4.00;2.20;;;;;;;16.61;54.25;100046.06;5105177;28;20040;-64
2023/03/28 02:45:42;;;;;;;6.18;2.65;;;;;;;16.58;54.24;100048.78;5113485;28;20098;-64
2023/03/28 02:48:52;;;;;;;4.57;2.50;;;;;;;16.57;54.07;100047.91;5050258;28;20091;-64
2023/03/28 02:51:33;;;;;;;4.70;2.42;;;;;;;16.56;53.98;100054.09;4972008;28;20125;-64
2023/03/28 02:54:16;;;;;;;4.70;2.60;;;;;;;16.55;54.00;100049.75;4971389;28;20031;-64
2023/03/28 02:56:51;;;;;;;4.95;2.58;;;;;;;16.54;54.19;100049.78;4971735;28;20031;-64
2023/03/28 02:59:40;;;;;;;4.57;2.55;;;;;;;16.54;54.04;100047.16;4971916;28;20460;-64
2023/03/28 03:02:07;;;;;;;4.85;2.85;;;;;;;16.53;54.27;100041.06;4954962;28;20034;-64
2023/03/28 03:04:32;;;;;;;4.68;2.70;;;;;;;16.53;54.01;100051.59;4971808;28;20054;-64
2023/03/28 03:07:01;;;;;;;5.15;2.85;;;;;;;16.53;54.17;100055.97;4971345;28;20069;-64
2023/03/28 03:09:27;;;;;;;4.20;2.40;;;;;;;16.49;54.22;100057.84;4971601;28;20038;-64
2023/03/28 03:11:52;;;;;;;5.32;2.30;;;;;;;16.47;54.25;100051.78;4971575;28;20476;-64
2023/03/28 03:14:18;;;;;;;4.30;2.47;;;;;;;16.48;53.96;100053.50;4971451;28;20027;-63
2023/03/28 03:16:43;;;;;;;4.45;2.42;;;;;;;16.47;53.99;100051.78;4971083;28;20448;-63
2023/03/28 03:19:09;;;;;;;4.47;2.30;;;;;;;16.48;53.95;100053.50;4955117;28;20404;-63
2023/03/28 03:21:36;;;;;;;4.88;2.65;;;;;;;16.47;54.26;100047.38;4998614;28;20041;-64
2023/03/28 03:24:03;;;;;;;4.63;2.40;;;;;;;16.47;53.89;100047.38;5050112;28;20076;-64
2023/03/28 03:26:28;;;;;;;6.07;3.00;;;;;;;16.48;53.99;100048.25;5049899;28;20025;-63
2023/03/28 03:28:54;;;;;;;4.82;2.38;;;;;;;16.46;53.92;100050.06;5102019;28;20086;-64
2023/03/28 03:31:20;;;;;;;4.88;2.55;;;;;;;16.47;54.11;100043.88;5112451;28;20094;-64
2023/03/28 03:33:46;;;;;;;4.72;2.85;;;;;;;16.46;53.89;100040.38;5112631;28;20241;-64
2023/03/28 03:36:11;;;;;;;5.07;2.80;;;;;;;16.43;53.98;100039.63;5112713;28;20469;-63
2023/03/28 03:38:38;;;;;;;4.78;2.45;;;;;;;16.41;53.96;100036.19;5112723;28;20477;-64
2023/03/28 03:41:03;;;;;;;5.75;3.03;;;;;;;16.38;53.76;100038.00;5112812;28;20080;-64
2023/03/28 03:43:29;;;;;;;4.63;2.30;;;;;;;16.38;53.61;100043.25;5112645;28;20032;-63
2023/03/28 03:45:59;;;;;;;5.60;2.80;;;;;;;16.39;53.69;100044.13;5112160;28;20123;-64
2023/03/28 03:48:24;;;;;;;5.53;2.65;;;;;;;16.38;53.88;100040.63;5112529;28;20051;-64
2023/03/28 03:50:50;;;;;;;5.72;2.67;;;;;;;16.37;53.79;100040.69;5112477;28;20024;-64
2023/03/28 03:53:15;;;;;;;5.47;2.42;;;;;;;16.36;53.77;100045.09;5112482;28;20028;-64
2023/03/28 03:55:41;;;;;;;4.47;2.65;;;;;;;16.33;53.60;100037.28;5112501;27;20024;-63
2023/03/28 03:58:06;;;;;;;4.80;2.30;;;;;;;16.33;53.82;100039.91;5112269;28;20106;-64
2023/03/28 04:00:32;;;;;;;5.00;3.08;;;;;;;16.33;53.95;100039.91;5112111;28;20096;-64
2023/03/28 04:02:57;;;;;;;5.55;3.03;;;;;;;16.32;53.94;100042.63;5112448;28;20058;-64
2023/03/28 04:05:23;;;;;;;5.15;2.38;;;;;;;16.32;53.63;100042.63;5112254;28;20027;-64
2023/03/28 04:07:49;;;;;;;4.80;2.60;;;;;;;16.30;53.80;100045.28;5112250;28;20024;-64
2023/03/28 04:10:15;;;;;;;4.43;2.50;;;;;;;16.32;53.73;100048.72;5112441;28;20028;-64
2023/03/28 04:12:40;;;;;;;5.03;2.50;;;;;;;16.30;53.82;100045.28;5112025;28;20125;-63
2023/03/28 04:15:06;;;;;;;4.63;2.67;;;;;;;16.28;53.56;100041.84;5112067;28;20031;-64
2023/03/28 04:17:33;;;;;;;6.10;2.85;;;;;;;16.27;53.35;100034.00;5112353;28;20033;-64
2023/03/28 04:20:01;;;;;;;5.20;2.85;;;;;;;16.25;53.48;100036.66;5112281;28;20031;-64
2023/03/28 04:22:28;;;;;;;5.18;2.75;;;;;;;16.21;53.84;100035.03;5112197;28;20078;-64
2023/03/28 04:24:55;;;;;;;4.55;2.35;;;;;;;16.21;53.47;100035.03;5112001;28;20550;-63
2023/03/28 04:27:25;;;;;;;4.80;2.47;;;;;;;16.20;53.73;100038.59;5116111;28;20074;-64
2023/03/28 04:29:52;;;;;;;5.32;2.28;;;;;;;16.20;53.64;100038.59;5115810;28;20073;-64
2023/03/28 04:32:20;;;;;;;5.85;3.10;;;;;;;16.21;53.40;100025.38;5116097;28;20122;-64
2023/03/28 04:34:48;;;;;;;5.75;2.85;;;;;;;16.20;53.49;100028.06;5116006;28;20020;-64
2023/03/28 04:37:14;;;;;;;5.55;2.95;;;;;;;16.18;53.45;100025.47;5116230;28;20098;-64
2023/03/28 04:39:40;;;;;;;4.55;2.72;;;;;;;16.19;53.59;100026.34;5116097;28;20031;-64
2023/03/28 04:42:07;;;;;;;4.72;2.30;;;;;;;16.16;53.58;100031.69;5115855;28;20106;-64
2023/03/28 04:44:32;;;;;;;4.03;2.38;;;;;;;16.14;53.74;100033.50;5115705;28;20488;-64
2023/03/28 04:46:58;;;;;;;5.68;2.53;;;;;;;16.13;53.86;100037.91;5115702;28;20032;-64
2023/03/28 04:49:25;;;;;;;4.82;2.53;;;;;;;16.15;53.49;100040.50;5114447;28;20026;-64
2023/03/28 04:51:50;;;;;;;5.18;2.40;;;;;;;16.15;53.66;100040.50;5115762;28;20023;-65
2023/03/28 04:54:16;;;;;;;7.55;2.65;;;;;;;16.13;53.95;100042.34;5106449;28;20039;-64
2023/03/28 04:56:44;;;;;;;5.50;2.70;;;;;;;16.14;54.25;100049.31;5111323;28;20034;-63
2023/03/28 04:59:12;;;;;;;6.57;3.08;;;;;;;16.18;54.17;100056.22;5108795;28;20114;-64
2023/03/28 05:01:38;;;;;;;5.20;3.00;;;;;;;16.16;54.14;100052.75;5112843;28;20451;-63
2023/03/28 05:04:03;;;;;;;5.32;2.55;;;;;;;16.18;54.24;100061.47;5101718;28;20024;-63
2023/03/28 05:06:29;;;;;;;5.95;3.08;;;;;;;16.16;53.98;100052.75;5108749;28;20488;-63
2023/03/28 05:08:54;;;;;;;4.35;2.40;;;;;;;16.18;53.97;100066.75;5108625;28;20039;-64
2023/03/28 05:11:20;;;;;;;4.35;2.45;;;;;;;16.20;54.02;100064.91;5107431;28;20031;-63
2023/03/28 05:13:45;;;;;;;4.82;2.80;;;;;;;16.24;54.14;100066.56;5110022;28;20039;-63
2023/03/28 05:16:11;;;;;;;4.55;2.50;;;;;;;16.23;54.03;100070.09;5104916;28;20032;-64
2023/03/28 05:18:36;;;;;;;5.47;2.70;;;;;;;16.23;53.79;100064.84;5094935;28;20024;-63
2023/03/28 05:21:02;;;;;;;6.30;2.95;;;;;;;16.22;53.72;100068.34;5103747;28;20035;-64
2023/03/28 05:23:27;;;;;;;5.00;2.45;;;;;;;16.21;53.48;100062.25;5104466;28;20032;-61
2023/03/28 05:25:53;;;;;;;6.43;2.63;;;;;;;16.20;53.81;100063.16;5101878;28;20031;-62
2023/03/28 05:28:19;;;;;;;5.82;2.88;;;;;;;16.22;54.07;100063.09;5111595;28;20173;-61
2023/03/28 05:30:45;;;;;;;10.18;3.50;;;;;;;16.21;54.30;100066.63;5100991;28;20028;-61
2023/03/28 05:33:11;;;;;;;7.40;2.90;;;;;;;16.22;55.15;100068.34;5097041;28;20058;-61
2023/03/28 05:35:36;;;;;;;9.10;2.92;;;;;;;16.22;56.03;100068.34;5108101;28;20102;-61
2023/03/28 05:38:03;;;;;;;6.97;2.72;;;;;;;16.27;56.21;100076.97;5099766;28;20016;-62
2023/03/28 05:40:28;;;;;;;6.32;3.40;;;;;;;16.27;56.35;100076.97;5108527;28;20024;-60
2023/03/28 05:42:54;;;;;;;11.23;2.92;;;;;;;16.26;56.70;100075.25;5106134;28;20047;-61
2023/03/28 05:45:20;;;;;;;10.35;3.65;;;;;;;16.27;56.52;100076.13;5110917;28;20028;-61
2023/03/28 05:47:45;;;;;;;7.45;2.90;;;;;;;16.27;56.73;100082.25;5113881;28;20051;-61
2023/03/28 05:50:11;;;;;;;6.43;2.97;;;;;;;16.27;56.65;100071.72;5113843;28;20035;-61
2023/03/28 05:52:37;;;;;;;8.85;2.85;;;;;;;16.26;56.77;100070.00;5112801;28;20027;-63
2023/03/28 05:55:03;;;;;;;6.82;2.70;;;;;;;16.26;56.58;100071.78;5114664;28;20031;-61
2023/03/28 05:57:28;;;;;;;6.18;3.40;;;;;;;16.24;56.72;100085.00;5114011;28;20034;-61
2023/03/28 05:59:53;;;;;;;7.43;2.90;;;;;;;16.26;56.64;100079.69;5114571;28;20028;-61
2023/03/28 06:02:21;;;;;;;7.60;2.92;;;;;;;16.24;56.74;100071.81;5114356;28;20020;-62
2023/03/28 06:04:47;;;;;;;7.82;2.72;;;;;;;16.24;56.54;100077.09;5114015;28;20473;-61
2023/03/28 06:07:13;;;;;;;6.80;2.85;;;;;;;16.22;56.84;100071.00;5114233;28;20026;-61
2023/03/28 06:09:40;;;;;;;5.93;3.13;;;;;;;16.23;56.52;100073.56;5114676;28;20084;-62
2023/03/28 06:12:06;;;;;;;6.95;2.92;;;;;;;16.23;56.82;100075.38;5115004;28;20111;-62
2023/03/28 06:14:31;;;;;;;5.43;2.42;;;;;;;16.23;56.54;100067.47;5115090;28;20026;-62
2023/03/28 06:16:58;;;;;;;6.13;3.00;;;;;;;16.23;56.29;100080.63;5114821;28;20027;-61
2023/03/28 06:19:24;;;;;;;6.65;2.92;;;;;;;16.23;56.22;100075.38;5114561;28;20023;-61
2023/03/28 06:21:50;;;;;;;7.82;3.10;;;;;;;16.19;56.49;100071.97;5114808;28;20053;-62
2023/03/28 06:24:15;;;;;;;6.70;3.17;;;;;;;16.22;56.27;100071.00;5114204;28;20020;-60
2023/03/28 06:26:41;;;;;;;6.13;3.10;;;;;;;16.18;56.57;100069.38;5113520;28;20461;-61
2023/03/28 06:29:07;;;;;;;7.25;2.83;;;;;;;16.19;56.46;100074.59;5113674;28;20028;-61
2023/03/28 06:31:33;;;;;;;5.55;3.05;;;;;;;16.21;56.16;100066.63;5114207;28;20023;-61
2023/03/28 06:33:58;;;;;;;7.32;3.08;;;;;;;16.23;56.28;100070.94;5112338;28;20443;-60
2023/03/28 06:36:24;;;;;;;5.25;2.72;;;;;;;16.19;55.99;100065.84;5112320;28;20046;-62
2023/03/28 06:38:51;;;;;;;6.25;2.97;;;;;;;16.18;55.93;100074.66;5113745;28;20027;-61
2023/03/28 06:41:16;;;;;;;5.05;3.33;;;;;;;16.23;55.72;100081.47;5113500;28;20027;-61
2023/03/28 06:43:42;;;;;;;5.60;2.97;;;;;;;16.24;55.58;100077.09;5113852;28;20081;-61
2023/03/28 06:46:09;;;;;;;5.97;3.10;;;;;;;16.21;56.05;100083.31;5113589;28;20106;-61
2023/03/28 06:48:34;;;;;;;6.40;2.90;;;;;;;16.20;55.73;100085.97;5113337;28;20081;-60
2023/03/28 06:51:00;;;;;;;5.18;2.90;;;;;;;16.23;55.53;100085.91;5113384;28;20036;-61
2023/03/28 06:53:26;;;;;;;8.23;3.08;;;;;;;16.24;55.84;100072.66;5113586;28;20046;-61
2023/03/28 06:55:52;;;;;;;5.97;2.70;;;;;;;16.26;55.63;100074.41;5113028;28;20040;-61
2023/03/28 06:58:19;;;;;;;4.82;2.40;;;;;;;16.27;55.49;100076.13;5113368;28;20544;-61
2023/03/28 07:00:45;;;;;;;5.78;2.45;;;;;;;16.27;55.65;100082.25;5113189;28;20052;-61
2023/03/28 07:03:11;;;;;;;5.97;2.53;;;;;;;16.27;55.36;100082.25;5113236;28;20047;-61
2023/03/28 07:05:38;;;;;;;5.50;3.05;;;;;;;16.28;55.23;100091.91;5113252;27;20082;-61
2023/03/28 07:08:08;;;;;;;4.57;2.28;;;;;;;16.26;55.48;100101.59;5113038;28;20088;-61
2023/03/28 07:10:35;;;;;;;6.07;2.67;;;;;;;16.31;54.93;100104.94;5112918;28;20031;-62
2023/03/28 07:13:00;;;;;;;4.57;2.58;;;;;;;16.31;55.23;100112.84;5113148;28;20043;-61
2023/03/28 07:15:26;;;;;;;4.88;2.30;;;;;;;16.33;55.01;100121.56;5113085;28;20039;-61
2023/03/28 07:17:52;;;;;;;4.03;2.25;;;;;;;16.34;55.12;100114.53;5113209;28;20110;-61
2023/03/28 07:20:18;;;;;;;4.93;2.63;;;;;;;16.36;55.28;100112.69;5111553;28;20466;-61
2023/03/28 07:22:44;;;;;;;6.22;2.58;;;;;;;16.36;55.10;100113.56;5113166;28;20027;-61
2023/03/28 07:25:10;;;;;;;5.13;2.33;;;;;;;16.40;54.96;100108.19;5112497;28;20019;-61
2023/03/28 07:27:35;;;;;;;4.88;2.50;;;;;;;16.41;54.72;100104.69;5112525;28;20028;-62
2023/03/28 07:30:01;;;;;;;5.22;2.45;;;;;;;16.40;55.03;100102.94;5111823;28;20099;-61
2023/03/28 07:32:26;;;;;;;6.30;2.90;;;;;;;16.41;55.01;100100.25;5112779;28;20035;-61
2023/03/28 07:34:52;;;;;;;5.25;2.40;;;;;;;16.42;54.94;100101.13;5112935;28;20028;-61
2023/03/28 07:37:17;;;;;;;5.80;2.75;;;;;;;16.45;54.39;100114.19;5112861;28;20495;-61
2023/03/28 07:39:44;;;;;;;5.85;2.47;;;;;;;16.46;54.37;100110.66;5112250;28;20047;-62
2023/03/28 07:42:11;;;;;;;6.47;2.30;;;;;;;16.45;54.42;100112.41;5112608;28;20031;-61
2023/03/28 07:44:36;;;;;;;5.82;2.53;;;;;;;16.50;54.58;100099.09;5112591;28;20039;-61
2023/03/28 07:47:02;;;;;;;5.03;2.53;;;;;;;16.49;54.62;100092.09;5112596;28;20084;-61
2023/03/28 07:49:28;;;;;;;6.80;3.35;;;;;;;16.47;54.33;100088.66;5112543;28;20024;-60
2023/03/28 07:51:53;;;;;;;7.00;2.72;;;;;;;16.47;54.39;100080.78;5112730;28;20101;-61
2023/03/28 07:54:20;;;;;;;5.85;2.63;;;;;;;16.50;54.53;100085.94;5112209;28;20030;-61
2023/03/28 07:56:46;;;;;;;3.80;2.30;;;;;;;16.50;54.15;100099.09;5112449;28;20114;-61
2023/03/28 07:59:13;;;;;;;5.65;2.50;;;;;;;16.50;54.31;100094.69;5112456;28;20034;-61
2023/03/28 08:01:43;;;;;;;5.05;2.63;;;;;;;16.53;54.31;100096.38;5111799;28;20397;-61
2023/03/28 08:04:10;;;;;;;6.70;2.30;;;;;;;16.56;53.96;100093.63;5112421;28;20024;-61
2023/03/28 08:06:39;;;;;;;4.72;2.30;;;;;;;16.58;53.90;100097.09;5111760;28;20457;-61
2023/03/28 08:09:11;;;;;;;4.80;2.30;;;;;;;16.58;53.92;100102.38;5112571;28;20107;-61
2023/03/28 08:11:38;;;;;;;5.95;2.40;;;;;;;16.58;53.52;100107.63;5112293;28;20447;-61
2023/03/28 08:14:08;;;;;;;4.55;2.33;;;;;;;16.61;53.89;100102.25;5112182;28;20027;-61
2023/03/28 08:16:33;;;;;;;5.35;2.60;;;;;;;16.61;53.68;100102.25;5112387;28;20377;-61
2023/03/28 08:18:59;;;;;;;5.18;2.55;;;;;;;16.61;53.68;100107.53;5112287;28;20027;-60
2023/03/28 08:21:26;;;;;;;6.38;2.95;;;;;;;16.63;53.64;100111.00;5112131;28;20023;-61
2023/03/28 08:23:52;;;;;;;3.92;2.08;;;;;;;16.64;53.65;100107.44;5112537;28;20027;-61
2023/03/28 08:26:17;;;;;;;5.65;2.75;;;;;;;16.63;53.57;100100.44;5111983;28;20511;-61
2023/03/28 08:28:43;;;;;;;5.43;2.60;;;;;;;16.67;53.36;100110.88;5111983;28;20111;-61
2023/03/28 08:31:12;;;;;;;3.97;2.30;;;;;;;16.69;53.39;100124.84;5112184;28;20027;-62
2023/03/28 08:33:39;;;;;;;4.70;2.20;;;;;;;16.71;53.21;100136.22;5111911;28;20043;-61
2023/03/28 08:36:05;;;;;;;5.03;2.50;;;;;;;16.70;53.33;100143.25;5111712;28;20031;-61
2023/03/28 08:38:31;;;;;;;4.60;2.45;;;;;;;16.72;53.17;100137.94;5111985;28;20016;-61
2023/03/28 08:41:12;;;;;;;5.55;2.40;;;;;;;16.74;53.38;100144.00;5112190;28;20051;-60
2023/03/28 08:43:46;;;;;;;4.43;2.10;;;;;;;16.73;53.23;100142.28;5112159;28;20016;-60
2023/03/28 08:46:14;;;;;;;5.07;2.35;;;;;;;16.73;53.22;100144.94;5111895;28;20073;-61
2023/03/28 08:48:43;;;;;;;4.32;2.42;;;;;;;16.74;53.21;100144.00;5112086;28;20073;-61
2023/03/28 08:51:14;;;;;;;6.28;2.42;;;;;;;16.78;53.24;100145.66;5111622;28;20027;-61
2023/03/28 08:53:48;;;;;;;4.13;2.40;;;;;;;16.79;53.02;100150.00;5112079;28;20419;-61
2023/03/28 08:56:15;;;;;;;4.57;2.38;;;;;;;16.80;53.16;100149.09;5111815;28;20039;-61
2023/03/28 08:58:57;;;;;;;4.18;2.05;;;;;;;16.78;53.17;100145.66;5111877;28;20020;-60
2023/03/28 09:01:31;;;;;;;4.97;2.30;;;;;;;16.82;52.78;100142.00;5111917;28;20024;-61
2023/03/28 09:03:58;;;;;;;3.13;2.03;;;;;;;16.85;53.11;100136.63;5111921;28;20028;-61
2023/03/28 09:06:45;;;;;;;4.90;2.08;;;;;;;16.85;53.14;100151.59;5111300;28;20019;-60
2023/03/28 09:09:13;;;;;;;4.57;2.15;;;;;;;16.86;52.93;100154.16;5112085;28;20028;-61
2023/03/28 09:12:07;;;;;;;3.78;2.00;;;;;;;16.85;52.82;100152.44;5111420;28;20377;-61
2023/03/28 09:14:32;;;;;;;3.10;1.88;;;;;;;16.89;53.01;100154.06;5115413;28;20024;-61
2023/03/28 09:17:19;;;;;;;3.45;2.00;;;;;;;16.89;52.97;100154.06;5115276;28;20023;-61
2023/03/28 09:20:16;;;;;;;4.80;2.53;;;;;;;16.89;52.81;100155.84;5115269;28;20020;-61
2023/03/28 09:22:54;;;;;;;5.15;2.50;;;;;;;16.91;52.86;100160.13;5111710;28;20066;-61
2023/03/28 09:25:37;;;;;;;4.00;2.03;;;;;;;16.91;52.75;100157.50;5115014;28;20107;-61
2023/03/28 09:28:18;;;;;;;5.85;2.28;;;;;;;16.94;53.08;100158.34;5115267;28;20066;-61
2023/03/28 09:30:47;;;;;;;3.83;2.15;;;;;;;16.95;52.89;100158.25;5110685;28;20539;-61
2023/03/28 09:33:20;;;;;;;3.40;2.08;;;;;;;16.97;52.74;100155.59;5114672;27;20526;-61
2023/03/28 09:35:48;;;;;;;4.20;2.08;;;;;;;16.98;52.88;100147.63;5106975;28;20042;-61
2023/03/28 09:38:24;;;;;;;3.38;2.00;;;;;;;16.98;52.64;100141.47;5115021;28;20031;-60
2023/03/28 09:40:54;;;;;;;4.93;2.25;;;;;;;16.99;52.91;100132.66;5114816;28;20401;-61
2023/03/28 09:43:28;;;;;;;3.53;2.00;;;;;;;17.01;52.83;100117.66;5114789;28;20055;-61
2023/03/28 09:46:05;;;;;;;5.03;2.20;;;;;;;17.01;52.76;100107.13;5114712;27;20477;-61
2023/03/28 09:48:34;;;;;;;3.45;2.00;;;;;;;17.01;52.93;100099.22;5114599;28;20080;-60
2023/03/28 09:51:01;;;;;;;4.18;2.13;;;;;;;17.04;52.88;100088.56;5113517;28;20024;-61
2023/03/28 09:53:35;;;;;;;4.15;2.03;;;;;;;17.05;52.72;100095.59;5114658;28;20023;-61
2023/03/28 09:56:12;;;;;;;4.85;2.13;;;;;;;17.07;52.76;100091.13;5114585;28;20507;-60
2023/03/28 09:58:48;;;;;;;;;;;;;;;17.09;52.66;100091.06;5114026;28;20024;-61
2023/03/28 10:01:42;;;;;;;4.22;2.20;;;;;;;17.09;52.59;100078.72;5114671;28;20381;-61
2023/03/28 10:04:32;;;;;;;3.22;1.52;;;;;;;17.10;52.38;100071.69;5114271;28;20397;-61
2023/03/28 10:07:10;;;;;;;5.43;2.28;;;;;;;17.12;52.66;100067.22;5113163;28;20481;-61
2023/03/28 10:09:57;;;;;;;4.22;2.17;;;;;;;17.11;52.58;100063.75;5114120;28;20027;-62
2023/03/28 10:12:32;;;;;;;4.78;2.30;;;;;;;17.12;52.64;100065.47;5114445;28;20031;-60
2023/03/28 10:14:58;;;;;;;3.47;1.93;;;;;;;17.14;52.75;100068.88;5114599;28;20035;-61
2023/03/28 10:17:30;;;;;;;4.60;1.95;;;;;;;17.13;52.48;100061.91;5114182;28;20261;-61
2023/03/28 10:20:09;;;;;;;4.38;1.83;;;;;;;17.15;52.46;100067.97;5114501;28;20388;-60
2023/03/28 10:22:38;;;;;;;3.95;1.75;;;;;;;17.16;52.51;100067.03;5114154;28;20041;-61
2023/03/28 10:25:16;;;;;;;3.13;1.75;;;;;;;17.17;52.39;100068.78;5112397;28;20501;-60
2023/03/28 10:27:43;;;;;;;4.20;1.85;;;;;;;17.20;52.47;100072.22;5114478;28;20023;-61
2023/03/28 10:30:25;;;;;;;3.75;1.60;;;;;;;17.20;52.40;100072.22;5114571;28;20392;-61
2023/03/28 10:33:16;;;;;;;2.97;1.60;;;;;;;17.21;52.17;100077.47;5113936;28;20085;-61
2023/03/28 10:35:57;;;;;;;3.63;1.90;;;;;;;17.23;52.42;100077.41;5114391;28;20493;-61
2023/03/28 10:38:29;;;;;;;4.55;1.50;;;;;;;17.24;52.45;100084.41;5114152;28;20019;-61
2023/03/28 10:41:02;;;;;;;4.47;1.73;;;;;;;17.24;52.47;100073.84;5113932;28;20081;-61
2023/03/28 10:43:34;;;;;;;3.45;1.60;;;;;;;17.25;52.28;100076.41;5113773;28;20023;-60
2023/03/28 10:46:04;;;;;;;4.57;1.65;;;;;;;17.26;52.29;100078.16;5113511;28;20031;-61
2023/03/28 10:48:33;;;;;;;3.30;1.50;;;;;;;17.27;52.28;100079.00;5113573;28;20092;-61
2023/03/28 10:51:07;;;;;;;2.60;1.40;;;;;;;17.29;52.20;100071.91;5113520;28;20501;-61
2023/03/28 10:54:02;;;;;;;3.67;1.95;;;;;;;17.30;52.26;100068.34;5113565;27;20024;-61
2023/03/28 10:56:38;;;;;;;3.75;1.90;;;;;;;17.31;52.18;100059.53;5113498;28;20400;-61
2023/03/28 10:59:21;;;;;;;3.42;1.60;;;;;;;17.34;52.14;100069.94;5113584;28;20062;-61
2023/03/28 11:02:05;;;;;;;4.18;1.95;;;;;;;17.34;52.40;100064.66;5112970;28;20031;-61
2023/03/28 11:05:00;;;;;;;4.03;2.30;;;;;;;17.35;52.43;100066.41;5111890;28;20118;-60
2023/03/28 11:07:49;;;;;;;3.25;2.05;;;;;;;17.37;52.36;100071.63;5101647;28;20039;-61
2023/03/28 11:10:52;;;;;;;4.72;2.20;;;;;;;17.36;52.08;100077.81;5112384;28;20058;-61
2023/03/28 11:13:39;;;;;;;6.50;2.38;;;;;;;17.37;52.20;100072.50;5106935;28;20071;-61
2023/03/28 11:16:19;;;;;;;5.72;2.30;;;;;;;17.39;52.05;100067.16;5112407;28;20031;-61
2023/03/28 11:18:50;;;;;;;6.50;1.90;;;;;;;17.39;52.18;100060.09;5112964;28;20028;-61
2023/03/28 11:21:32;;;;;;;3.75;1.70;;;;;;;17.41;52.14;100054.78;5112119;28;20088;-61
2023/03/28 11:24:13;;;;;;;4.03;1.88;;;;;;;17.42;52.01;100062.63;5113001;28;20030;-61
2023/03/28 11:26:55;;;;;;;4.82;1.88;;;;;;;17.43;51.93;100053.78;5112667;28;20037;-61
2023/03/28 11:30:01;;;;;;;5.43;1.60;;;;;;;17.44;52.10;100049.41;5112766;28;20500;-61
2023/03/28 11:32:33;;;;;;;4.10;1.73;;;;;;;17.47;52.21;100046.63;5102538;28;20048;-60
2023/03/28 11:35:25;;;;;;;5.30;2.00;;;;;;;17.47;51.83;100043.16;5112843;28;20032;-61
2023/03/28 11:38:03;;;;;;;5.70;1.70;;;;;;;17.49;52.03;100020.19;5112071;28;20023;-61
2023/03/28 11:40:33;;;;;;;3.78;1.70;;;;;;;17.50;51.86;100006.94;5109377;28;20485;-60
2023/03/28 11:43:12;;;;;;;5.82;1.60;;;;;;;17.51;52.02;100005.16;5112849;28;20023;-61